Aeroporto :
LOGIN :

Iscrizione | Disclaimer

   EN    FR    IT 

 










Sommario :    VFR   VFR Marginale   IFR   IFR Intensivo   IFR Molto Intensivo
Visibilità : 
Base nubi : 
>= 8 km
>= 3000ft
5 / 8 km
1000 / 3000 ft
1500m / 5 km
500 / 1000 ft
800 / 1500m
200 / 500 ft
< 800m
< 200 ft
Simboli :   Temporali  Nebbia  Neve Forte  Precipitazioni Forti  Vento > 20 kt
SIGMETs :   Varie  Temporali  Ghiacco  Turbolenza  Onda orograficha  Ceneri Vulcaniche






- Altitudine del aeroporto : 992 ft


LIRV - Roma Viterbo Air Force Base (military)

METARs OBSOLETI :
  • 281955Z 20004KT 9999 FEW025 17/17 Q1014 RMK SCT MON E SE INVIS VIS MIN 9999 BLU
  • 281855Z 25006KT 9999 FEW025 18/17 Q1014 RMK SCT MON E SE LIB NC VIS MIN 9999 BLU
  • 281755Z 26008KT 9999 FEW020TCU FEW025CB 21/17 Q1014

TAF TAF LIRV
Valido dal 28 a 18 ore il 29 a 03 ore UTC


281700Z 2818/2903 25008KT 9999 FEW020 SCT030
TEMPO 2818/2820 5000 SHRA FEW025CB SCT040
BECMG 2820/2822 CAVOK



MetMap, La meteo Aeronautica in un colpo d'occhio ! - Copyright ORBIFLY Dicembre 2007 - Disclaimer

ORBIFLY MET'MAP TEAM :

Programmazione e sviluppo : Alexandra Zaïnal
Concezione : Baudouin d'Aumeries
Supporto tecnico e logistico : Manuel Goepfert
Aiuto : Marc-Olivier Méhu
Aiuto per la traduzione : Arnaldo La Scala




FONTI E CREDITI :

   NOAA